Huvudsida
METAR-TAF:

METAR-TAF

Flygplatser :

Uleåborgs flygplats

Uleåborg, Finland

latitud: 64-56N, longitud: 025-22E, höjd: 12 m

Aktuellt väderrapport

Denna rapport gjordes för 27 minuter sedan, klockan 05:20 UTC
Vind 6 kt från väst/nordväst
Temperatur -5°C
Fuktighet 73%
Tryck 1019 hPa
Sikt 10 km eller mer
Inga moln under 1 500 m eller inga cumulonimbus

METAR: EFOU 050520Z AUTO 30006KT CAVOK M05/M09 Q1019

Tid: 08:47 (05:47 UTC)

Väderprognos

Denna rapport gjordes för 1 timme och 25 minuter sedan, klockan 04:22 UTC
Prognos gäller från 05 kl. 04 UTC till 06 kl. 03 UTC
Vind 10 kt från nordväst
Sikt 10 km eller mer
Inga moln under 1 500 m eller inga cumulonimbus
Blir
från 05 kl. 18 UTC till 05 kl. 20 UTC
Vind 6 kt från syd

TAF: EFOU 050422Z 0504/0603 31010KT CAVOK BECMG 0518/0520 18006KT

Aktuella väderrapporter och prognoser från 4000 flygplatser (METAR- och TAF-rapporter).

De tillgängliga stationerna syns som gula och röda prickar på kartan.

För musen över prickarna för att se namnen på stationerna.

Klicka sedan för att få väderrapporter och prognoser.

För att ändra kartan: Klicka på de gröna knapparna med ett svart kors på för att zooma in; den gröna knappen med ett streck på för att zooma ut; eller på de gröna pilarna för angränsande kartor.


METAR-TAF: